ARQ YSCB-YSSY
Flight info
| Callsign | ARQ |
|---|---|
| Flight time | 0h 39m |
| Altitude | 15000 |
| Route | CB W423 CULIN Y59 TESAT |
| Aircraft | B350/L-SBGRW/S |
Departure
| Time | 2026-04-25 03:33 |
|---|---|
| Airport | Canberra Airport (YSCB) |
Arrival
| Time | 2026-04-25 04:13 |
|---|---|
| Airport | Sydney Kingsford Smith International Airport (YSSY) |
| Time | Latitude | Longitude | Altitude | Speed | Heading |
|---|---|---|---|---|---|
| 2026-04-25 03:12 | -35.30406 | 149.19925 | 1884 ft | 0 kts | 126° |
| 2026-04-25 03:27 | -35.30414 | 149.19934 | 1879 ft | 6 kts | 151° |
| 2026-04-25 03:27 | -35.30428 | 149.19911 | 1880 ft | 9 kts | 288° |
| 2026-04-25 03:27 | -35.30377 | 149.19829 | 1879 ft | 15 kts | 306° |
| 2026-04-25 03:28 | -35.30304 | 149.19712 | 1877 ft | 20 kts | 306° |
| 2026-04-25 03:28 | -35.30259 | 149.19626 | 1879 ft | 1 kts | 300° |
| 2026-04-25 03:28 | -35.30258 | 149.19625 | 1879 ft | 0 kts | 295° |
| 2026-04-25 03:29 | -35.30253 | 149.19613 | 1879 ft | 6 kts | 297° |
| 2026-04-25 03:29 | -35.30236 | 149.19574 | 1879 ft | 0 kts | 300° |
| 2026-04-25 03:32 | -35.30226 | 149.19547 | 1879 ft | 11 kts | 291° |
| 2026-04-25 03:32 | -35.30196 | 149.19445 | 1877 ft | 7 kts | 338° |
| 2026-04-25 03:32 | -35.30192 | 149.19443 | 1877 ft | 0 kts | 354° |
| 2026-04-25 03:32 | -35.30007 | 149.19442 | 1876 ft | 76 kts | 1° |
| 2026-04-25 03:33 | -35.29214 | 149.19446 | 1967 ft | 142 kts | 1° |
| 2026-04-25 03:33 | -35.28175 | 149.19512 | 2559 ft | 146 kts | 1° |
| 2026-04-25 03:33 | -35.27202 | 149.19509 | 3436 ft | 138 kts | 358° |
| 2026-04-25 03:33 | -35.26237 | 149.19523 | 4079 ft | 143 kts | 358° |
| 2026-04-25 03:34 | -35.25227 | 149.19544 | 4789 ft | 147 kts | 358° |
| 2026-04-25 03:34 | -35.24194 | 149.19574 | 5506 ft | 151 kts | 0° |
| 2026-04-25 03:34 | -35.23141 | 149.19611 | 6224 ft | 151 kts | 359° |
| 2026-04-25 03:34 | -35.22085 | 149.19630 | 6941 ft | 152 kts | 0° |
| 2026-04-25 03:35 | -35.21056 | 149.19954 | 7593 ft | 155 kts | 20° |
| 2026-04-25 03:35 | -35.20023 | 149.20383 | 8180 ft | 163 kts | 17° |
| 2026-04-25 03:35 | -35.18863 | 149.20855 | 8445 ft | 189 kts | 19° |
| 2026-04-25 03:35 | -35.17593 | 149.21391 | 8906 ft | 194 kts | 18° |
| 2026-04-25 03:36 | -35.16308 | 149.21909 | 9468 ft | 195 kts | 18° |
| 2026-04-25 03:36 | -35.15030 | 149.22421 | 10034 ft | 196 kts | 18° |
| 2026-04-25 03:36 | -35.13753 | 149.22940 | 10651 ft | 193 kts | 17° |
| 2026-04-25 03:36 | -35.12475 | 149.23454 | 11191 ft | 194 kts | 18° |
| 2026-04-25 03:37 | -35.11190 | 149.23976 | 11721 ft | 195 kts | 18° |
| 2026-04-25 03:37 | -35.09898 | 149.24502 | 12262 ft | 196 kts | 18° |
| 2026-04-25 03:37 | -35.08598 | 149.25033 | 12807 ft | 198 kts | 18° |
| 2026-04-25 03:37 | -35.07288 | 149.25564 | 13337 ft | 199 kts | 18° |
| 2026-04-25 03:38 | -35.05969 | 149.26098 | 13886 ft | 200 kts | 19° |
| 2026-04-25 03:38 | -35.04647 | 149.26636 | 14400 ft | 201 kts | 19° |
| 2026-04-25 03:38 | -35.03330 | 149.27169 | 14860 ft | 203 kts | 19° |
| 2026-04-25 03:38 | -35.01982 | 149.27716 | 15321 ft | 206 kts | 19° |
| 2026-04-25 03:39 | -35.00555 | 149.28300 | 15377 ft | 227 kts | 19° |
| 2026-04-25 03:39 | -34.98999 | 149.28942 | 15383 ft | 243 kts | 19° |
| 2026-04-25 03:39 | -34.97356 | 149.29610 | 15386 ft | 254 kts | 19° |
| 2026-04-25 03:39 | -34.95651 | 149.30300 | 15384 ft | 261 kts | 19° |
| 2026-04-25 03:40 | -34.93907 | 149.31006 | 15385 ft | 266 kts | 19° |
| 2026-04-25 03:40 | -34.92141 | 149.31721 | 15388 ft | 269 kts | 19° |
| 2026-04-25 03:40 | -34.90356 | 149.32444 | 15385 ft | 271 kts | 19° |
| 2026-04-25 03:40 | -34.88560 | 149.33166 | 15385 ft | 272 kts | 18° |
| 2026-04-25 03:41 | -34.86775 | 149.33848 | 15386 ft | 273 kts | 18° |
| 2026-04-25 03:41 | -34.84972 | 149.34577 | 15385 ft | 273 kts | 19° |
| 2026-04-25 03:41 | -34.83172 | 149.35321 | 15384 ft | 273 kts | 19° |
| 2026-04-25 03:41 | -34.81367 | 149.36051 | 15385 ft | 273 kts | 18° |
| 2026-04-25 03:42 | -34.79561 | 149.36776 | 15384 ft | 273 kts | 18° |
| 2026-04-25 03:42 | -34.77756 | 149.37503 | 15384 ft | 273 kts | 18° |
| 2026-04-25 03:42 | -34.75962 | 149.38269 | 15387 ft | 273 kts | 25° |
| 2026-04-25 03:42 | -34.74369 | 149.39524 | 15382 ft | 274 kts | 40° |
| 2026-04-25 03:43 | -34.73109 | 149.41209 | 15383 ft | 275 kts | 56° |
| 2026-04-25 03:43 | -34.72177 | 149.43239 | 15382 ft | 275 kts | 62° |
| 2026-04-25 03:43 | -34.71278 | 149.45294 | 15382 ft | 275 kts | 61° |
| 2026-04-25 03:43 | -34.70365 | 149.47335 | 15378 ft | 275 kts | 61° |
| 2026-04-25 03:44 | -34.69472 | 149.49392 | 15380 ft | 275 kts | 62° |
| 2026-04-25 03:44 | -34.68585 | 149.51450 | 15384 ft | 275 kts | 62° |
| 2026-04-25 03:44 | -34.67690 | 149.53500 | 15382 ft | 275 kts | 62° |
| 2026-04-25 03:44 | -34.66792 | 149.55550 | 15383 ft | 275 kts | 62° |
| 2026-04-25 03:45 | -34.65897 | 149.57599 | 15377 ft | 275 kts | 62° |
| 2026-04-25 03:45 | -34.65012 | 149.59622 | 15378 ft | 275 kts | 62° |
| 2026-04-25 03:45 | -34.64117 | 149.61670 | 15377 ft | 275 kts | 62° |
| 2026-04-25 03:45 | -34.63221 | 149.63717 | 15376 ft | 274 kts | 62° |
| 2026-04-25 03:46 | -34.62328 | 149.65761 | 15375 ft | 273 kts | 62° |
| 2026-04-25 03:46 | -34.61437 | 149.67793 | 15377 ft | 273 kts | 62° |
| 2026-04-25 03:46 | -34.60545 | 149.69821 | 15375 ft | 272 kts | 62° |
| 2026-04-25 03:46 | -34.59656 | 149.71848 | 15373 ft | 272 kts | 62° |
| 2026-04-25 03:47 | -34.58767 | 149.73874 | 15376 ft | 272 kts | 62° |
| 2026-04-25 03:47 | -34.57877 | 149.75896 | 15371 ft | 272 kts | 62° |
| 2026-04-25 03:47 | -34.57000 | 149.77893 | 15373 ft | 272 kts | 62° |
| 2026-04-25 03:47 | -34.56110 | 149.79918 | 15369 ft | 272 kts | 62° |
| 2026-04-25 03:48 | -34.55220 | 149.81939 | 15369 ft | 272 kts | 62° |
| 2026-04-25 03:48 | -34.54330 | 149.83961 | 15370 ft | 272 kts | 62° |
| 2026-04-25 03:48 | -34.53440 | 149.85981 | 15370 ft | 272 kts | 62° |
| 2026-04-25 03:48 | -34.52549 | 149.88001 | 15370 ft | 272 kts | 62° |
| 2026-04-25 03:49 | -34.51658 | 149.90019 | 15369 ft | 272 kts | 62° |
| 2026-04-25 03:49 | -34.50767 | 149.92037 | 15369 ft | 271 kts | 62° |
| 2026-04-25 03:49 | -34.49875 | 149.94057 | 15368 ft | 271 kts | 62° |
| 2026-04-25 03:49 | -34.48997 | 149.96045 | 15369 ft | 271 kts | 62° |
| 2026-04-25 03:50 | -34.48106 | 149.98062 | 15369 ft | 271 kts | 62° |
| 2026-04-25 03:50 | -34.47215 | 150.00074 | 15369 ft | 271 kts | 62° |
| 2026-04-25 03:50 | -34.46322 | 150.02092 | 15303 ft | 271 kts | 62° |
| 2026-04-25 03:50 | -34.45435 | 150.04105 | 15211 ft | 270 kts | 62° |
| 2026-04-25 03:51 | -34.44552 | 150.06106 | 15108 ft | 269 kts | 62° |
| 2026-04-25 03:51 | -34.43670 | 150.08101 | 15012 ft | 269 kts | 62° |
| 2026-04-25 03:51 | -34.42783 | 150.10093 | 14918 ft | 268 kts | 62° |
| 2026-04-25 03:51 | -34.41909 | 150.12057 | 14823 ft | 268 kts | 62° |
| 2026-04-25 03:52 | -34.41026 | 150.14045 | 14726 ft | 268 kts | 62° |
| 2026-04-25 03:52 | -34.40141 | 150.16030 | 14618 ft | 269 kts | 62° |
| 2026-04-25 03:52 | -34.39243 | 150.18035 | 14389 ft | 273 kts | 62° |
| 2026-04-25 03:52 | -34.38336 | 150.20069 | 14152 ft | 275 kts | 62° |
| 2026-04-25 03:53 | -34.37427 | 150.22117 | 13896 ft | 277 kts | 62° |
| 2026-04-25 03:53 | -34.36513 | 150.24167 | 13632 ft | 277 kts | 62° |
| 2026-04-25 03:53 | -34.35595 | 150.26225 | 13376 ft | 278 kts | 62° |
| 2026-04-25 03:53 | -34.34692 | 150.28253 | 13124 ft | 278 kts | 62° |
| 2026-04-25 03:54 | -34.33773 | 150.30308 | 12872 ft | 277 kts | 62° |
| 2026-04-25 03:54 | -34.32859 | 150.32354 | 12618 ft | 276 kts | 62° |
| 2026-04-25 03:54 | -34.31947 | 150.34398 | 12376 ft | 276 kts | 62° |
| 2026-04-25 03:54 | -34.31034 | 150.36440 | 12125 ft | 276 kts | 62° |
| 2026-04-25 03:55 | -34.30123 | 150.38476 | 11880 ft | 275 kts | 62° |
| 2026-04-25 03:55 | -34.29211 | 150.40509 | 11635 ft | 275 kts | 62° |
| 2026-04-25 03:55 | -34.28301 | 150.42541 | 11397 ft | 275 kts | 62° |
| 2026-04-25 03:55 | -34.27392 | 150.44572 | 11154 ft | 274 kts | 62° |
| 2026-04-25 03:56 | -34.26487 | 150.46599 | 10913 ft | 274 kts | 62° |
| 2026-04-25 03:56 | -34.25597 | 150.48594 | 10682 ft | 274 kts | 62° |
| 2026-04-25 03:56 | -34.24698 | 150.50603 | 10529 ft | 271 kts | 62° |
| 2026-04-25 03:56 | -34.23797 | 150.52616 | 10217 ft | 274 kts | 62° |
| 2026-04-25 03:57 | -34.22885 | 150.54649 | 9841 ft | 276 kts | 62° |
| 2026-04-25 03:57 | -34.21967 | 150.56696 | 9472 ft | 278 kts | 62° |
| 2026-04-25 03:57 | -34.21048 | 150.58749 | 9108 ft | 278 kts | 62° |
| 2026-04-25 03:57 | -34.20129 | 150.60801 | 8738 ft | 277 kts | 62° |
| 2026-04-25 03:58 | -34.19213 | 150.62847 | 8374 ft | 277 kts | 61° |
| 2026-04-25 03:58 | -34.18294 | 150.64887 | 8013 ft | 276 kts | 61° |
| 2026-04-25 03:58 | -34.17391 | 150.66891 | 7962 ft | 267 kts | 61° |
| 2026-04-25 03:58 | -34.16541 | 150.68802 | 7960 ft | 257 kts | 62° |
| 2026-04-25 03:59 | -34.15700 | 150.70676 | 7958 ft | 253 kts | 60° |
| 2026-04-25 03:59 | -34.14843 | 150.72539 | 7956 ft | 254 kts | 61° |
| 2026-04-25 03:59 | -34.13997 | 150.74421 | 7953 ft | 255 kts | 61° |
| 2026-04-25 03:59 | -34.13155 | 150.76304 | 7955 ft | 255 kts | 61° |
| 2026-04-25 04:00 | -34.12306 | 150.78188 | 7956 ft | 256 kts | 61° |
| 2026-04-25 04:00 | -34.11453 | 150.80073 | 7953 ft | 256 kts | 61° |
| 2026-04-25 04:00 | -34.10601 | 150.81959 | 7952 ft | 256 kts | 61° |
| 2026-04-25 04:00 | -34.09752 | 150.83843 | 7955 ft | 256 kts | 61° |
| 2026-04-25 04:01 | -34.08905 | 150.85728 | 7958 ft | 256 kts | 62° |
| 2026-04-25 04:01 | -34.08058 | 150.87613 | 7956 ft | 256 kts | 61° |
| 2026-04-25 04:01 | -34.07221 | 150.89472 | 7966 ft | 255 kts | 61° |
| 2026-04-25 04:01 | -34.06373 | 150.91355 | 7914 ft | 257 kts | 61° |
| 2026-04-25 04:02 | -34.05498 | 150.93291 | 7559 ft | 268 kts | 61° |
| 2026-04-25 04:02 | -34.04586 | 150.95297 | 7124 ft | 277 kts | 61° |
| 2026-04-25 04:02 | -34.03661 | 150.97365 | 6657 ft | 283 kts | 62° |
| 2026-04-25 04:02 | -34.02728 | 150.99459 | 6178 ft | 284 kts | 61° |
| 2026-04-25 04:03 | -34.01792 | 151.01534 | 5986 ft | 276 kts | 60° |
| 2026-04-25 04:03 | -34.00613 | 151.03267 | 5982 ft | 264 kts | 35° |
| 2026-04-25 04:03 | -33.98977 | 151.04075 | 5981 ft | 256 kts | 9° |
| 2026-04-25 04:03 | -33.97220 | 151.04295 | 5981 ft | 253 kts | 4° |
| 2026-04-25 04:04 | -33.95471 | 151.04452 | 5968 ft | 251 kts | 4° |
| 2026-04-25 04:04 | -33.93716 | 151.04591 | 5866 ft | 253 kts | 3° |
| 2026-04-25 04:04 | -33.91974 | 151.04730 | 5520 ft | 252 kts | 4° |
| 2026-04-25 04:04 | -33.90228 | 151.04862 | 5209 ft | 250 kts | 3° |
| 2026-04-25 04:05 | -33.88501 | 151.04979 | 4897 ft | 248 kts | 3° |
| 2026-04-25 04:05 | -33.86786 | 151.05087 | 4601 ft | 246 kts | 3° |
| 2026-04-25 04:05 | -33.85086 | 151.05193 | 4305 ft | 244 kts | 3° |
| 2026-04-25 04:05 | -33.83396 | 151.05298 | 4016 ft | 242 kts | 3° |
| 2026-04-25 04:06 | -33.81743 | 151.05396 | 3748 ft | 240 kts | 4° |
| 2026-04-25 04:06 | -33.80076 | 151.05494 | 3461 ft | 240 kts | 3° |
| 2026-04-25 04:06 | -33.78408 | 151.05595 | 3165 ft | 239 kts | 3° |
| 2026-04-25 04:06 | -33.76749 | 151.05689 | 3031 ft | 238 kts | 4° |
| 2026-04-25 04:07 | -33.75115 | 151.05775 | 2974 ft | 231 kts | 3° |
| 2026-04-25 04:07 | -33.73606 | 151.06215 | 2981 ft | 222 kts | 31° |
| 2026-04-25 04:07 | -33.72599 | 151.07575 | 2985 ft | 221 kts | 65° |
| 2026-04-25 04:07 | -33.72262 | 151.09381 | 2973 ft | 223 kts | 82° |
| 2026-04-25 04:08 | -33.72097 | 151.11237 | 2969 ft | 224 kts | 83° |
| 2026-04-25 04:08 | -33.72622 | 151.12796 | 3194 ft | 216 kts | 173° |
| 2026-04-25 04:08 | -33.74073 | 151.12463 | 3099 ft | 226 kts | 185° |
| 2026-04-25 04:08 | -33.75650 | 151.12652 | 2982 ft | 229 kts | 165° |
| 2026-04-25 04:09 | -33.77164 | 151.13135 | 2962 ft | 218 kts | 166° |
| 2026-04-25 04:09 | -33.78586 | 151.13506 | 2868 ft | 203 kts | 168° |
| 2026-04-25 04:09 | -33.79948 | 151.13850 | 2605 ft | 197 kts | 167° |
| 2026-04-25 04:09 | -33.81276 | 151.14198 | 2344 ft | 193 kts | 167° |
| 2026-04-25 04:10 | -33.82572 | 151.14526 | 2091 ft | 188 kts | 168° |
| 2026-04-25 04:10 | -33.83832 | 151.14841 | 1840 ft | 183 kts | 167° |
| 2026-04-25 04:10 | -33.85068 | 151.15166 | 1601 ft | 181 kts | 166° |
| 2026-04-25 04:10 | -33.86297 | 151.15471 | 1346 ft | 179 kts | 167° |
| 2026-04-25 04:11 | -33.88650 | 151.16037 | 907 ft | 167 kts | 165° |
| 2026-04-25 04:11 | -33.89754 | 151.16330 | 680 ft | 150 kts | 165° |
| 2026-04-25 04:11 | -33.90688 | 151.16559 | 474 ft | 127 kts | 163° |
| 2026-04-25 04:12 | -33.91509 | 151.16786 | 318 ft | 116 kts | 163° |
| 2026-04-25 04:12 | -33.92278 | 151.16982 | 128 ft | 111 kts | 161° |
| 2026-04-25 04:12 | -33.93027 | 151.17182 | 31 ft | 105 kts | 165° |
| 2026-04-25 04:12 | -33.93678 | 151.17353 | 12 ft | 84 kts | 167° |
| 2026-04-25 04:13 | -33.93987 | 151.17431 | 14 ft | 28 kts | 174° |
| 2026-04-25 04:13 | -33.94145 | 151.17473 | 18 ft | 32 kts | 164° |
| 2026-04-25 04:13 | -33.94401 | 151.17605 | 22 ft | 36 kts | 146° |
| 2026-04-25 04:13 | -33.94471 | 151.17667 | 21 ft | 0 kts | 146° |
| 2026-04-25 04:14 | -33.94471 | 151.17668 | 21 ft | 0 kts | 145° |
| 2026-04-25 04:15 | -33.94480 | 151.17676 | 22 ft | 13 kts | 135° |
| 2026-04-25 04:15 | -33.94521 | 151.17785 | 19 ft | 13 kts | 86° |
| 2026-04-25 04:16 | -33.94429 | 151.17768 | 20 ft | 12 kts | 337° |
| 2026-04-25 04:16 | -33.94421 | 151.17763 | 20 ft | 5 kts | 338° |
| 2026-04-25 04:16 | -33.94262 | 151.17714 | 18 ft | 33 kts | 347° |
| 2026-04-25 04:16 | -33.94092 | 151.17667 | 18 ft | 19 kts | 14° |
| 2026-04-25 04:17 | -33.94036 | 151.17796 | 19 ft | 27 kts | 73° |
| 2026-04-25 04:17 | -33.93965 | 151.18090 | 23 ft | 42 kts | 73° |
| 2026-04-25 04:17 | -33.93882 | 151.18447 | 29 ft | 46 kts | 74° |
| 2026-04-25 04:17 | -33.93793 | 151.18798 | 24 ft | 32 kts | 59° |
| 2026-04-25 04:18 | -33.93639 | 151.18809 | 26 ft | 14 kts | 7° |
| 2026-04-25 04:18 | -33.93533 | 151.18853 | 27 ft | 17 kts | 0° |
| 2026-04-25 04:18 | -33.93452 | 151.18833 | 27 ft | 0 kts | 6° |